Time;durP1;ratioP1;P1;durP2;ratioP2;P2;SDS_P1;SDS_P2;PMS_P1;PMS_P2;Temp;Humidity;BMP_temperature;BMP_pressure;BME280_temperature;BME280_humidity;BME280_pressure;Samples;Min_cycle;Max_cycle;Signal;HPM_P1;HPM_P2
2022/08/29 00:00:49;;;;;;;;;;;;;;;26.60;38.20;99437.78;2066310;28;19921;-61
2022/08/29 00:01:50;;;;;;;;;;;;;;;26.60;38.49;99438.63;2065787;28;20410;-60
2022/08/29 00:02:52;;;;;;;;;;;;;;;26.60;38.20;99435.03;2073656;28;19923;-60
2022/08/29 00:03:56;;;;;;;;;;;;;;;26.60;38.45;99429.50;2067284;28;20341;-61
2022/08/29 00:04:56;;;;;;;;;;;;;;;26.60;38.51;99433.09;2066063;28;19917;-61
2022/08/29 00:05:57;;;;;;;;;;;;;;;26.59;38.35;99436.94;2068108;28;19909;-60
2022/08/29 00:06:57;;;;;;;;;;;;;;;26.61;38.17;99442.28;2065444;28;20122;-61
2022/08/29 00:08:00;;;;;;;;;;;;;;;26.59;38.61;99436.94;2067109;28;19949;-61
2022/08/29 00:09:00;;;;;;;;;;;;;;;26.60;38.48;99437.78;2067854;28;19918;-61
2022/08/29 00:10:02;;;;;;;;;;;;;;;26.61;38.36;99439.50;2063842;28;19914;-61
2022/08/29 00:11:05;;;;;;;;;;;;;;;26.60;38.18;99435.03;2059116;28;19913;-61
2022/08/29 00:12:05;;;;;;;;;;;;;;;26.60;38.49;99440.56;2067900;28;19968;-61
2022/08/29 00:13:07;;;;;;;;;;;;;;;26.60;38.31;99437.78;2065778;28;20492;-60
2022/08/29 00:14:07;;;;;;;;;;;;;;;26.59;38.17;99436.94;2066624;28;19913;-60
2022/08/29 00:15:10;;;;;;;;;;;;;;;26.60;38.47;99438.63;2067136;28;19924;-61
2022/08/29 00:16:10;;;;;;;;;;;;;;;26.60;38.16;99437.78;2066911;28;19945;-61
2022/08/29 00:17:10;;;;;;;;;;;;;;;26.60;38.30;99443.31;2067030;28;20365;-61
2022/08/29 00:18:12;;;;;;;;;;;;;;;26.60;38.09;99435.03;2067025;28;19924;-61
2022/08/29 00:19:12;;;;;;;;;;;;;;;26.60;38.29;99437.78;2066582;28;19933;-62
2022/08/29 00:20:15;;;;;;;;;;;;;;;26.59;38.35;99436.09;2060199;28;19920;-62
2022/08/29 00:21:15;;;;;;;;;;;;;;;26.59;38.09;99430.56;2063902;28;20794;-61
2022/08/29 00:22:16;;;;;;;;;;;;;;;26.60;38.10;99432.25;2066022;28;19914;-60
2022/08/29 00:23:16;;;;;;;;;;;;;;;26.59;38.02;99425.88;2063637;28;19980;-59
2022/08/29 00:24:17;;;;;;;;;;;;;;;26.59;38.04;99438.88;2058199;28;19918;-60
2022/08/29 00:25:17;;;;;;;;;;;;;;;26.59;38.09;99433.34;2058902;28;19918;-60
2022/08/29 00:26:17;;;;;;;;;;;;;;;26.59;38.06;99436.09;2066681;28;19948;-60
2022/08/29 00:27:18;;;;;;;;;;;;;;;26.59;38.39;99430.56;2067021;28;20496;-60
2022/08/29 00:28:18;;;;;;;;;;;;;;;26.59;38.32;99433.34;2061932;28;19928;-60
2022/08/29 00:29:18;;;;;;;;;;;;;;;26.59;38.38;99436.09;2065156;28;20402;-60
2022/08/29 00:30:19;;;;;;;;;;;;;;;26.59;38.48;99436.09;2066481;28;19944;-60
2022/08/29 00:31:19;;;;;;;;;;;;;;;26.59;38.52;99436.09;2066237;28;19917;-60
2022/08/29 00:32:20;;;;;;;;;;;;;;;26.58;38.40;99437.16;2067156;28;19914;-60
2022/08/29 00:33:20;;;;;;;;;;;;;;;26.57;38.32;99438.22;2066943;28;20313;-60
2022/08/29 00:34:20;;;;;;;;;;;;;;;26.56;38.35;99431.84;2066327;28;19925;-60
2022/08/29 00:35:23;;;;;;;;;;;;;;;26.56;38.20;99431.00;2065785;28;19917;-60
2022/08/29 00:36:24;;;;;;;;;;;;;;;26.56;38.35;99431.84;2065874;28;19965;-60
2022/08/29 00:37:25;;;;;;;;;;;;;;;26.57;38.24;99438.22;2066057;28;19972;-60
2022/08/29 00:38:25;;;;;;;;;;;;;;;26.55;38.42;99437.59;2063133;28;20480;-60
2022/08/29 00:39:25;;;;;;;;;;;;;;;26.56;38.50;99436.53;2064307;28;20004;-61
2022/08/29 00:40:28;;;;;;;;;;;;;;;26.56;38.49;99436.53;2066578;28;19936;-60
2022/08/29 00:41:29;;;;;;;;;;;;;;;26.55;38.27;99432.06;2066103;28;19918;-60
2022/08/29 00:42:30;;;;;;;;;;;;;;;26.55;38.55;99427.38;2064833;28;19917;-61
2022/08/29 00:43:32;;;;;;;;;;;;;;;26.55;38.58;99434.81;2068329;28;20357;-60
2022/08/29 00:44:32;;;;;;;;;;;;;;;26.55;38.26;99434.81;2065637;28;19918;-60
2022/08/29 00:45:33;;;;;;;;;;;;;;;26.55;38.34;99430.13;2061642;28;19940;-60
2022/08/29 00:46:33;;;;;;;;;;;;;;;26.55;38.47;99434.81;2065164;28;19928;-60
2022/08/29 00:47:35;;;;;;;;;;;;;;;26.55;38.53;99435.66;2064367;28;20346;-60
2022/08/29 00:48:37;;;;;;;;;;;;;;;26.55;38.49;99429.28;2065678;28;19917;-60
2022/08/29 00:49:40;;;;;;;;;;;;;;;26.55;38.52;99429.28;2064443;28;20753;-60
2022/08/29 00:50:47;;;;;;;;;;;;;;;26.55;38.39;99435.66;2065327;28;20562;-60
2022/08/29 00:51:47;;;;;;;;;;;;;;;26.55;38.52;99429.28;2059783;28;20025;-60
2022/08/29 00:52:48;;;;;;;;;;;;;;;26.55;38.51;99438.44;2061327;28;20026;-59
2022/08/29 00:53:58;;;;;;;;;;;;;;;26.55;38.34;99432.91;2062480;28;19922;-60
2022/08/29 00:55:00;;;;;;;;;;;;;;;26.55;38.69;99434.81;2065006;28;20685;-59
2022/08/29 00:56:00;;;;;;;;;;;;;;;26.55;38.43;99434.81;2064575;28;19917;-60
2022/08/29 00:57:01;;;;;;;;;;;;;;;26.55;38.32;99434.81;2065711;28;19917;-60
2022/08/29 00:58:05;;;;;;;;;;;;;;;26.55;38.46;99434.81;2066872;28;19921;-60
2022/08/29 00:59:11;;;;;;;;;;;;;;;26.55;38.40;99434.81;2062314;28;19922;-60
2022/08/29 01:00:12;;;;;;;;;;;;;;;26.54;38.59;99433.13;2064759;28;19917;-60
2022/08/29 01:01:13;;;;;;;;;;;;;;;26.54;38.37;99427.59;2066019;28;20277;-60
2022/08/29 01:02:13;;;;;;;;;;;;;;;26.55;38.61;99423.78;2062198;28;19940;-60
2022/08/29 01:03:13;;;;;;;;;;;;;;;26.56;38.36;99431.00;2065361;28;19924;-60
2022/08/29 01:04:14;;;;;;;;;;;;;;;26.54;38.69;99427.59;2065209;28;19917;-60
2022/08/29 01:05:16;;;;;;;;;;;;;;;26.55;38.62;99432.06;2066150;28;19909;-60
2022/08/29 01:06:16;;;;;;;;;;;;;;;26.54;38.34;99428.44;2066236;28;19914;-58
2022/08/29 01:07:16;;;;;;;;;;;;;;;26.54;38.35;99427.59;2064963;28;19940;-61
2022/08/29 01:08:17;;;;;;;;;;;;;;;26.54;38.37;99424.84;2066701;28;19913;-61
2022/08/29 01:09:19;;;;;;;;;;;;;;;26.54;38.58;99422.09;2066377;28;19917;-61
2022/08/29 01:12:58;;;;;;;;;;;;;;;26.52;38.69;99420.31;2066322;28;19917;-60
2022/08/29 01:14:00;;;;;;;;;;;;;;;26.54;38.50;99424.84;2062191;28;19918;-60
2022/08/29 01:15:03;;;;;;;;;;;;;;;26.54;38.37;99427.59;2061271;28;20162;-60
2022/08/29 01:16:04;;;;;;;;;;;;;;;26.52;38.45;99425.00;2064250;28;19924;-61
2022/08/29 01:17:07;;;;;;;;;;;;;;;26.53;38.37;99426.72;2069024;28;19917;-60
2022/08/29 01:18:08;;;;;;;;;;;;;;;26.51;38.43;99423.31;2063062;28;19914;-60
2022/08/29 01:19:28;;;;;;;;;;;;;;;26.52;38.35;99420.31;2059964;28;20414;-60
2022/08/29 01:20:48;;;;;;;;;;;;;;;26.50;38.65;99427.97;2058409;28;20605;-60
2022/08/29 01:21:54;;;;;;;;;;;;;;;26.51;38.43;99428.84;2068208;28;20146;-59
2022/08/29 01:22:54;;;;;;;;;;;;;;;26.51;38.47;99442.69;2066538;28;19918;-60
2022/08/29 01:24:00;;;;;;;;;;;;;;;26.51;38.74;99440.75;2066235;28;19917;-60
2022/08/29 01:25:01;;;;;;;;;;;;;;;26.50;38.54;99439.03;2059707;28;19925;-60
2022/08/29 01:26:02;;;;;;;;;;;;;;;26.51;38.87;99439.91;2062918;28;19913;-60
2022/08/29 01:27:03;;;;;;;;;;;;;;;26.50;38.89;99444.56;2065905;28;19917;-61
2022/08/29 01:28:10;;;;;;;;;;;;;;;26.49;38.67;99442.03;2067534;28;19918;-62
2022/08/29 01:29:11;;;;;;;;;;;;;;;26.49;38.71;99436.50;2063861;28;20447;-60
2022/08/29 01:30:13;;;;;;;;;;;;;;;26.50;38.90;99438.19;2059337;28;20158;-60
2022/08/29 01:31:16;;;;;;;;;;;;;;;26.48;38.76;99438.44;2065215;28;19941;-61
2022/08/29 01:32:16;;;;;;;;;;;;;;;26.49;38.83;99434.59;2065858;28;19906;-60
2022/08/29 01:33:16;;;;;;;;;;;;;;;26.50;38.90;99436.28;2061514;28;20629;-61
2022/08/29 01:34:19;;;;;;;;;;;;;;;26.49;38.59;99434.59;2065264;28;19980;-60
2022/08/29 01:35:19;;;;;;;;;;;;;;;26.49;38.64;99440.13;2065649;28;20013;-60
2022/08/29 01:36:21;;;;;;;;;;;;;;;26.50;38.67;99436.28;2067342;28;19918;-60
2022/08/29 01:37:21;;;;;;;;;;;;;;;26.50;38.83;99439.03;2058910;28;19918;-60
2022/08/29 01:38:27;;;;;;;;;;;;;;;26.49;38.76;99442.88;2062924;28;20122;-61
2022/08/29 01:39:29;;;;;;;;;;;;;;;26.49;38.94;99437.34;2067272;28;20122;-60
2022/08/29 01:40:29;;;;;;;;;;;;;;;26.50;38.96;99443.72;2066725;28;19917;-60
2022/08/29 01:41:31;;;;;;;;;;;;;;;26.49;38.87;99442.88;2065255;28;19910;-61
2022/08/29 01:42:32;;;;;;;;;;;;;;;26.50;38.68;99441.81;2068337;28;19968;-60
2022/08/29 01:43:37;;;;;;;;;;;;;;;26.49;38.69;99436.50;2067081;28;19988;-60
2022/08/29 01:44:38;;;;;;;;;;;;;;;26.50;39.01;99436.28;2065565;28;20371;-60
2022/08/29 01:45:38;;;;;;;;;;;;;;;26.49;38.88;99439.28;2067287;28;19922;-61
2022/08/29 01:46:39;;;;;;;;;;;;;;;26.48;38.62;99435.66;2065840;28;20052;-59
2022/08/29 01:47:39;;;;;;;;;;;;;;;26.50;38.85;99444.56;2066082;28;19921;-61
2022/08/29 01:48:41;;;;;;;;;;;;;;;26.50;38.97;99439.03;2065645;28;19928;-60
2022/08/29 01:49:41;;;;;;;;;;;;;;;26.49;38.83;99442.03;2062021;28;20134;-60
2022/08/29 01:50:41;;;;;;;;;;;;;;;26.49;38.87;99436.50;2066500;28;20461;-60
2022/08/29 01:51:42;;;;;;;;;;;;;;;26.48;38.88;99441.19;2066640;28;19967;-60
2022/08/29 01:52:43;;;;;;;;;;;;;;;26.48;39.00;99441.19;2064354;28;20383;-60
2022/08/29 01:53:43;;;;;;;;;;;;;;;26.48;38.69;99443.94;2066155;28;20133;-60
2022/08/29 01:54:44;;;;;;;;;;;;;;;26.48;38.98;99438.44;2066048;28;20012;-59
2022/08/29 01:55:44;;;;;;;;;;;;;;;26.48;39.00;99435.66;2064988;28;20127;-60
2022/08/29 01:56:47;;;;;;;;;;;;;;;26.48;38.89;99435.66;2065918;28;19917;-60
2022/08/29 01:57:47;;;;;;;;;;;;;;;26.48;38.97;99435.66;2062305;28;20295;-60
2022/08/29 01:58:48;;;;;;;;;;;;;;;26.47;38.95;99436.72;2066913;28;19925;-60
2022/08/29 01:59:49;;;;;;;;;;;;;;;26.46;38.91;99435.03;2065067;28;19925;-58
2022/08/29 02:00:49;;;;;;;;;;;;;;;26.47;38.75;99433.94;2066483;28;19917;-61
2022/08/29 02:02:02;;;;;;;;;;;;;;;26.46;39.00;99426.72;2065586;28;20106;-60
2022/08/29 02:03:02;;;;;;;;;;;;;;;26.46;39.03;99432.25;2066334;28;20509;-61
2022/08/29 02:04:03;;;;;;;;;;;;;;;26.46;38.94;99437.78;2066363;28;19955;-61
2022/08/29 02:05:04;;;;;;;;;;;;;;;26.45;39.02;99435.22;2062016;28;19918;-61
2022/08/29 02:06:04;;;;;;;;;;;;;;;26.45;38.82;99436.06;2060847;28;19922;-60
2022/08/29 02:07:05;;;;;;;;;;;;;;;26.46;39.09;99432.25;2065478;28;20014;-60
2022/08/29 02:08:05;;;;;;;;;;;;;;;26.45;38.90;99441.59;2068565;28;20412;-60
2022/08/29 02:09:06;;;;;;;;;;;;;;;26.45;38.85;99433.31;2066620;28;19917;-60
2022/08/29 02:10:07;;;;;;;;;;;;;;;26.44;39.15;99437.16;2067263;28;19924;-60
2022/08/29 02:11:09;;;;;;;;;;;;;;;26.45;39.10;99440.75;2065810;28;19921;-61
2022/08/29 02:12:09;;;;;;;;;;;;;;;26.45;38.89;99441.59;2066724;28;19956;-60
2022/08/29 02:13:10;;;;;;;;;;;;;;;26.44;39.17;99437.16;2063988;28;20438;-60
2022/08/29 02:14:10;;;;;;;;;;;;;;;26.45;38.87;99440.75;2064033;28;19967;-60
2022/08/29 02:15:12;;;;;;;;;;;;;;;26.45;39.20;99441.59;2063859;28;20402;-59
2022/08/29 02:16:12;;;;;;;;;;;;;;;26.45;38.95;99444.34;2063863;28;19918;-60
2022/08/29 02:17:13;;;;;;;;;;;;;;;26.46;38.93;99445.25;2074008;28;19913;-60
2022/08/29 02:18:13;;;;;;;;;;;;;;;26.45;39.13;99446.28;2064789;28;20011;-60
2022/08/29 02:19:14;;;;;;;;;;;;;;;26.45;39.17;99446.28;2066018;28;19933;-60
2022/08/29 02:20:14;;;;;;;;;;;;;;;26.44;39.04;99437.16;2066494;28;19928;-58
2022/08/29 02:21:17;;;;;;;;;;;;;;;26.46;39.18;99446.06;2068012;28;19917;-60
2022/08/29 02:22:17;;;;;;;;;;;;;;;26.45;38.99;99441.59;2066470;28;20813;-59
2022/08/29 02:23:17;;;;;;;;;;;;;;;26.45;39.10;99441.59;2066503;28;20325;-60
2022/08/29 02:24:18;;;;;;;;;;;;;;;26.45;39.12;99446.28;2066479;28;19921;-60
2022/08/29 02:26:37;;;;;;;;;;;;;;;26.44;39.13;99445.44;2066413;28;19918;-60
2022/08/29 02:27:37;;;;;;;;;;;;;;;26.44;38.99;99448.19;2066255;28;19914;-60
2022/08/29 02:28:38;;;;;;;;;;;;;;;26.45;38.98;99449.88;2066830;28;20044;-60
2022/08/29 02:29:38;;;;;;;;;;;;;;;26.44;39.25;99450.97;2063716;28;20470;-60
2022/08/29 02:30:39;;;;;;;;;;;;;;;26.45;39.17;99446.28;2066554;28;19913;-60
2022/08/29 02:31:39;;;;;;;;;;;;;;;26.45;39.19;99447.13;2067329;28;20356;-60
2022/08/29 02:32:40;;;;;;;;;;;;;;;26.44;39.11;99450.97;2065558;28;20012;-60
2022/08/29 02:33:40;;;;;;;;;;;;;;;26.44;39.00;99439.91;2065070;28;19925;-60
2022/08/29 02:34:43;;;;;;;;;;;;;;;26.44;39.28;99445.44;2058696;28;19953;-60
2022/08/29 02:35:43;;;;;;;;;;;;;;;26.44;39.14;99445.44;2064729;28;20189;-60
2022/08/29 02:36:43;;;;;;;;;;;;;;;26.44;39.18;99450.13;2066530;28;20119;-62
2022/08/29 02:37:44;;;;;;;;;;;;;;;26.43;39.36;99440.94;2065912;28;19918;-61
2022/08/29 02:38:44;;;;;;;;;;;;;;;26.42;39.39;99453.09;2067447;28;20006;-60
2022/08/29 02:39:44;;;;;;;;;;;;;;;26.43;39.39;99459.47;2063372;28;19918;-60
2022/08/29 02:40:45;;;;;;;;;;;;;;;26.41;39.21;99445.88;2063801;28;20784;-60
2022/08/29 02:41:46;;;;;;;;;;;;;;;26.42;39.45;99452.25;2063988;28;19917;-60
2022/08/29 02:42:46;;;;;;;;;;;;;;;26.42;39.33;99444.78;2069426;28;19925;-60
2022/08/29 02:43:46;;;;;;;;;;;;;;;26.42;39.44;99446.72;2059234;28;19918;-60
2022/08/29 02:44:47;;;;;;;;;;;;;;;26.41;39.53;99439.47;2066429;28;20119;-60
2022/08/29 02:45:47;;;;;;;;;;;;;;;26.41;39.43;99445.88;2064481;28;19948;-60
2022/08/29 02:46:47;;;;;;;;;;;;;;;26.40;39.30;99444.16;2066204;28;20107;-60
2022/08/29 02:47:48;;;;;;;;;;;;;;;26.41;39.22;99451.41;2064612;28;19975;-60
2022/08/29 02:48:48;;;;;;;;;;;;;;;26.40;39.45;99449.69;2065706;28;19952;-60
2022/08/29 02:49:49;;;;;;;;;;;;;;;26.40;39.28;99449.69;2067261;28;20040;-60
2022/08/29 02:50:50;;;;;;;;;;;;;;;26.40;39.56;99449.69;2064566;28;20096;-60
2022/08/29 02:51:50;;;;;;;;;;;;;;;26.40;39.24;99452.44;2066568;28;19910;-60
2022/08/29 02:52:51;;;;;;;;;;;;;;;26.39;39.61;99445.22;2064998;28;19917;-60
2022/08/29 02:53:52;;;;;;;;;;;;;;;26.40;39.55;99441.38;2065749;28;20297;-60
2022/08/29 02:54:52;;;;;;;;;;;;;;;26.40;39.62;99444.16;2066147;28;19953;-60
2022/08/29 02:55:53;;;;;;;;;;;;;;;26.39;39.56;99445.22;2065824;28;19926;-60
2022/08/29 02:56:53;;;;;;;;;;;;;;;26.40;39.62;99444.16;2066410;28;19920;-60
2022/08/29 02:57:54;;;;;;;;;;;;;;;26.39;39.59;99442.47;2059823;28;19918;-60
2022/08/29 02:58:54;;;;;;;;;;;;;;;26.40;39.56;99435.03;2066058;28;19936;-60
2022/08/29 02:59:55;;;;;;;;;;;;;;;26.40;39.63;99438.63;2063275;28;19944;-60
2022/08/29 03:00:55;;;;;;;;;;;;;;;26.41;39.28;99439.47;2065924;28;19960;-60
2022/08/29 03:01:55;;;;;;;;;;;;;;;26.40;39.39;99438.63;2064180;28;20858;-60
2022/08/29 03:02:56;;;;;;;;;;;;;;;26.41;39.62;99429.28;2067151;28;19917;-60
2022/08/29 03:03:56;;;;;;;;;;;;;;;26.40;39.55;99427.56;2064296;28;19918;-60
2022/08/29 03:04:58;;;;;;;;;;;;;;;26.40;39.42;99430.34;2065270;28;20292;-60
2022/08/29 03:05:59;;;;;;;;;;;;;;;26.40;39.73;99427.56;2062516;28;20429;-60
2022/08/29 03:06:59;;;;;;;;;;;;;;;26.41;39.58;99417.38;2062456;28;19925;-59
2022/08/29 03:08:00;;;;;;;;;;;;;;;26.40;39.67;99419.28;2068063;28;20468;-60
2022/08/29 03:09:01;;;;;;;;;;;;;;;26.41;39.48;99426.53;2065662;28;19917;-61
2022/08/29 03:10:03;;;;;;;;;;;;;;;26.41;39.72;99428.41;2065502;28;20613;-60
2022/08/29 03:11:04;;;;;;;;;;;;;;;26.41;39.63;99422.88;2067141;28;19917;-60
2022/08/29 03:12:05;;;;;;;;;;;;;;;26.41;39.75;99423.78;2065230;28;20402;-60
2022/08/29 03:13:05;;;;;;;;;;;;;;;26.41;39.48;99423.78;2067376;28;19925;-60
2022/08/29 03:14:05;;;;;;;;;;;;;;;26.41;39.74;99420.13;2062880;28;20410;-60
2022/08/29 03:15:07;;;;;;;;;;;;;;;26.41;39.49;99429.28;2064179;28;20441;-60
2022/08/29 03:16:07;;;;;;;;;;;;;;;26.41;39.58;99422.88;2065685;28;20384;-60
2022/08/29 03:17:07;;;;;;;;;;;;;;;26.41;39.58;99423.78;2064711;28;19921;-59
2022/08/29 03:18:08;;;;;;;;;;;;;;;26.41;39.57;99426.53;2064941;28;20140;-60
2022/08/29 03:19:08;;;;;;;;;;;;;;;26.41;39.50;99428.41;2066429;28;19917;-60
2022/08/29 03:20:09;;;;;;;;;;;;;;;26.40;39.86;99422.06;2065246;28;19988;-60
2022/08/29 03:21:20;;;;;;;;;;;;;;;26.39;39.67;99425.88;2058995;28;19922;-60
2022/08/29 03:22:20;;;;;;;;;;;;;;;26.40;39.66;99423.97;2062943;28;19993;-60
2022/08/29 03:23:20;;;;;;;;;;;;;;;26.39;40.11;99420.38;2066573;28;19925;-60
2022/08/29 03:24:21;;;;;;;;;;;;;;;26.38;39.72;99420.56;2064684;28;19953;-59
2022/08/29 03:25:21;;;;;;;;;;;;;;;26.37;39.93;99411.44;2066989;28;20607;-60
2022/08/29 03:26:23;;;;;;;;;;;;;;;26.38;39.75;99417.81;2065662;28;20395;-61
2022/08/29 03:27:23;;;;;;;;;;;;;;;26.38;39.94;99413.13;2064242;28;19995;-60
2022/08/29 03:28:24;;;;;;;;;;;;;;;26.38;39.78;99415.03;2066135;28;20090;-59
2022/08/29 03:29:24;;;;;;;;;;;;;;;26.37;40.05;99416.97;2061310;28;20568;-60
2022/08/29 03:30:25;;;;;;;;;;;;;;;26.37;39.86;99422.47;2059452;28;20032;-59
2022/08/29 03:31:26;;;;;;;;;;;;;;;26.37;39.84;99416.13;2063376;28;20436;-60
2022/08/29 03:32:26;;;;;;;;;;;;;;;26.36;39.73;99420.81;2060199;28;20079;-60
2022/08/29 03:33:26;;;;;;;;;;;;;;;26.37;39.86;99421.66;2065985;28;19913;-60
2022/08/29 03:34:27;;;;;;;;;;;;;;;26.37;39.81;99425.25;2060566;28;19910;-61
2022/08/29 03:35:27;;;;;;;;;;;;;;;26.36;40.13;99415.28;2060875;28;19923;-60
2022/08/29 03:36:28;;;;;;;;;;;;;;;26.37;40.08;99421.66;2057206;28;19913;-59
2022/08/29 03:37:28;;;;;;;;;;;;;;;26.37;40.13;99410.59;2063115;28;20984;-60
2022/08/29 03:38:29;;;;;;;;;;;;;;;26.37;39.88;99416.97;2066232;28;19924;-59
2022/08/29 03:39:29;;;;;;;;;;;;;;;26.36;39.90;99412.50;2064768;28;19972;-60
2022/08/29 03:40:29;;;;;;;;;;;;;;;26.36;40.05;99415.28;2065887;28;19956;-61
2022/08/29 03:41:30;;;;;;;;;;;;;;;26.37;39.98;99416.97;2064175;28;20172;-60
2022/08/29 03:42:30;;;;;;;;;;;;;;;26.37;40.18;99416.97;2063739;28;20012;-60
2022/08/29 03:43:30;;;;;;;;;;;;;;;26.36;40.13;99415.28;2066159;28;19917;-60
2022/08/29 03:44:35;;;;;;;;;;;;;;;26.37;40.03;99422.47;2066259;28;19917;-60
2022/08/29 03:45:35;;;;;;;;;;;;;;;26.37;39.90;99425.25;2065155;28;20402;-61
2022/08/29 03:46:36;;;;;;;;;;;;;;;26.38;39.93;99424.16;2065532;28;19922;-59
2022/08/29 03:47:37;;;;;;;;;;;;;;;26.37;40.00;99428.00;2063807;28;19939;-61
2022/08/29 03:48:37;;;;;;;;;;;;;;;26.37;40.19;99428.00;2064897;28;19914;-60
2022/08/29 03:49:38;;;;;;;;;;;;;;;26.38;40.21;99424.16;2066586;28;20573;-60
2022/08/29 03:50:38;;;;;;;;;;;;;;;26.38;39.90;99429.69;2064036;28;19921;-61
2022/08/29 03:51:39;;;;;;;;;;;;;;;26.38;40.19;99429.69;2066175;28;19923;-60
2022/08/29 03:52:41;;;;;;;;;;;;;;;26.38;39.92;99435.22;2059856;28;19918;-60
2022/08/29 03:53:42;;;;;;;;;;;;;;;26.38;40.29;99434.38;2061237;28;20036;-61
2022/08/29 03:54:42;;;;;;;;;;;;;;;26.38;40.32;99435.22;2066094;28;20645;-61
2022/08/29 03:55:42;;;;;;;;;;;;;;;26.38;39.93;99435.22;2065674;28;19913;-60
2022/08/29 03:56:42;;;;;;;;;;;;;;;26.38;40.02;99439.91;2065687;28;19918;-61
2022/08/29 03:57:44;;;;;;;;;;;;;;;26.37;40.22;99433.53;2064400;28;20428;-61
2022/08/29 03:58:44;;;;;;;;;;;;;;;26.38;40.08;99435.22;2065452;28;19922;-61
2022/08/29 03:59:46;;;;;;;;;;;;;;;26.37;40.32;99436.31;2066729;28;20281;-60
2022/08/29 04:00:46;;;;;;;;;;;;;;;26.37;40.13;99432.69;2066100;28;19917;-60
2022/08/29 04:01:47;;;;;;;;;;;;;;;26.37;40.10;99433.53;2065947;28;20436;-61
2022/08/29 04:02:48;;;;;;;;;;;;;;;26.36;40.26;99440.13;2059629;28;19924;-61
2022/08/29 04:03:48;;;;;;;;;;;;;;;26.36;40.33;99439.25;2064940;28;19914;-61
2022/08/29 04:05:07;;;;;;;;;;;;;;;26.35;40.16;99441.19;2064877;28;19925;-60
2022/08/29 04:06:07;;;;;;;;;;;;;;;26.36;40.20;99448.44;2067135;28;20158;-61
2022/08/29 04:07:08;;;;;;;;;;;;;;;26.35;40.16;99446.72;2064267;28;19918;-61
2022/08/29 04:08:09;;;;;;;;;;;;;;;26.34;40.39;99450.56;2067218;28;19917;-61
2022/08/29 04:09:09;;;;;;;;;;;;;;;26.35;40.27;99451.41;2065534;28;20278;-61
2022/08/29 04:10:10;;;;;;;;;;;;;;;26.34;40.14;99450.56;2066745;28;19953;-61
2022/08/29 04:11:11;;;;;;;;;;;;;;;26.35;40.14;99459.69;2065505;28;19920;-61
2022/08/29 04:12:12;;;;;;;;;;;;;;;26.34;40.42;99456.06;2064740;28;20122;-60
2022/08/29 04:13:12;;;;;;;;;;;;;;;26.34;40.26;99452.47;2066661;28;19921;-61
2022/08/29 04:14:13;;;;;;;;;;;;;;;26.34;40.23;99450.56;2064456;28;19920;-61
2022/08/29 04:15:13;;;;;;;;;;;;;;;26.33;40.40;99454.34;2065786;28;19929;-61
2022/08/29 04:16:15;;;;;;;;;;;;;;;26.34;40.25;99444.19;2064399;28;20230;-61
2022/08/29 04:17:15;;;;;;;;;;;;;;;26.33;40.27;99454.34;2063750;28;20197;-61
2022/08/29 04:18:16;;;;;;;;;;;;;;;26.33;40.53;99454.34;2066292;28;19913;-61
2022/08/29 04:19:17;;;;;;;;;;;;;;;26.33;40.43;99448.84;2063452;28;20055;-61
2022/08/29 04:20:17;;;;;;;;;;;;;;;26.33;40.56;99448.84;2064199;28;20056;-60
2022/08/29 04:21:17;;;;;;;;;;;;;;;26.34;40.31;99456.06;2066498;28;19936;-61
2022/08/29 04:22:17;;;;;;;;;;;;;;;26.34;40.66;99456.06;2065642;28;19940;-61
2022/08/29 04:23:18;;;;;;;;;;;;;;;26.34;40.58;99456.06;2064623;28;19921;-61
2022/08/29 04:24:18;;;;;;;;;;;;;;;26.35;40.31;99454.16;2064983;28;20387;-60
2022/08/29 04:25:18;;;;;;;;;;;;;;;26.35;40.28;99456.91;2064849;28;20469;-61
2022/08/29 04:26:19;;;;;;;;;;;;;;;26.34;40.31;99456.06;2065819;28;19952;-60
2022/08/29 04:27:19;;;;;;;;;;;;;;;26.34;40.61;99456.06;2064713;28;19921;-61
2022/08/29 04:28:19;;;;;;;;;;;;;;;26.34;40.36;99458.84;2065367;28;19910;-61
2022/08/29 04:29:20;;;;;;;;;;;;;;;26.35;40.56;99462.44;2065414;28;19928;-60
2022/08/29 04:30:21;;;;;;;;;;;;;;;26.34;40.40;99458.00;2064150;28;20270;-61
2022/08/29 04:31:21;;;;;;;;;;;;;;;26.35;40.67;99462.44;2064012;28;19924;-61
2022/08/29 04:32:22;;;;;;;;;;;;;;;26.35;40.39;99462.44;2063788;28;19915;-61
2022/08/29 04:33:24;;;;;;;;;;;;;;;26.35;40.40;99467.97;2065549;28;19987;-61
2022/08/29 04:34:24;;;;;;;;;;;;;;;26.34;40.68;99464.38;2065054;28;19927;-61
2022/08/29 04:35:24;;;;;;;;;;;;;;;26.34;40.56;99464.38;2065034;28;20428;-61
2022/08/29 04:36:25;;;;;;;;;;;;;;;26.35;40.57;99473.50;2066181;28;19921;-62
2022/08/29 04:37:26;;;;;;;;;;;;;;;26.34;40.36;99467.13;2062382;28;20443;-61
2022/08/29 04:38:26;;;;;;;;;;;;;;;26.34;40.62;99467.13;2060464;28;19918;-60
2022/08/29 04:39:27;;;;;;;;;;;;;;;26.34;40.64;99466.28;2061093;28;20382;-61
2022/08/29 04:40:27;;;;;;;;;;;;;;;26.33;40.68;99470.94;2064570;28;20146;-60
2022/08/29 04:41:27;;;;;;;;;;;;;;;26.34;40.38;99472.66;2065801;28;19944;-61
2022/08/29 04:42:27;;;;;;;;;;;;;;;26.34;40.56;99466.28;2062389;28;19920;-61
2022/08/29 04:43:28;;;;;;;;;;;;;;;26.33;40.70;99470.94;2064860;28;19918;-60
2022/08/29 04:44:28;;;;;;;;;;;;;;;26.32;40.71;99468.41;2060097;28;19918;-61
2022/08/29 04:45:29;;;;;;;;;;;;;;;26.32;40.70;99463.72;2065708;28;20057;-61
2022/08/29 04:46:29;;;;;;;;;;;;;;;26.31;40.73;99462.00;2066029;28;20000;-61
2022/08/29 04:47:30;;;;;;;;;;;;;;;26.30;40.57;99460.31;2065821;28;20044;-61
2022/08/29 04:48:30;;;;;;;;;;;;;;;26.30;40.70;99461.16;2063264;28;20293;-61
2022/08/29 04:49:30;;;;;;;;;;;;;;;26.30;40.79;99458.41;2062499;28;19994;-61
2022/08/29 04:50:31;;;;;;;;;;;;;;;26.29;40.72;99453.09;2067678;28;21080;-61
2022/08/29 04:51:33;;;;;;;;;;;;;;;26.29;40.66;99453.09;2065692;28;19928;-60
2022/08/29 04:52:33;;;;;;;;;;;;;;;26.29;40.51;99458.63;2066794;28;19971;-61
2022/08/29 04:53:33;;;;;;;;;;;;;;;26.28;40.78;99465.19;2065696;28;20410;-62
2022/08/29 04:54:34;;;;;;;;;;;;;;;26.28;40.85;99456.91;2066575;28;19918;-60
2022/08/29 04:55:34;;;;;;;;;;;;;;;26.28;40.66;99456.91;2067354;28;20028;-61
2022/08/29 04:56:36;;;;;;;;;;;;;;;26.28;40.80;99463.28;2066888;28;20014;-60
2022/08/29 04:57:37;;;;;;;;;;;;;;;26.29;40.82;99464.16;2065934;28;19917;-60
2022/08/29 04:58:39;;;;;;;;;;;;;;;26.27;40.90;99461.59;2066172;28;20042;-61
2022/08/29 04:59:39;;;;;;;;;;;;;;;26.28;40.81;99462.44;2066916;28;19917;-61
2022/08/29 05:00:39;;;;;;;;;;;;;;;26.29;40.82;99464.16;2064533;28;19917;-61
2022/08/29 05:01:40;;;;;;;;;;;;;;;26.28;40.82;99462.44;2066299;28;19964;-61
2022/08/29 05:02:41;;;;;;;;;;;;;;;26.28;40.56;99467.97;2059626;28;20395;-61
2022/08/29 05:03:41;;;;;;;;;;;;;;;26.29;40.84;99469.69;2064630;28;20012;-60
2022/08/29 05:04:42;;;;;;;;;;;;;;;26.28;40.76;99466.03;2066241;28;19909;-61
2022/08/29 05:05:42;;;;;;;;;;;;;;;26.28;40.85;99465.19;2067587;28;20428;-61
2022/08/29 05:06:42;;;;;;;;;;;;;;;26.29;40.79;99467.75;2065793;28;19924;-61
2022/08/29 05:07:45;;;;;;;;;;;;;;;26.29;40.88;99467.75;2066953;28;19917;-61
2022/08/29 05:08:45;;;;;;;;;;;;;;;26.29;40.62;99466.91;2065692;28;20557;-61
2022/08/29 05:09:47;;;;;;;;;;;;;;;26.29;40.68;99472.44;2064813;28;19941;-60
2022/08/29 05:10:48;;;;;;;;;;;;;;;26.31;40.88;99473.06;2061381;28;20383;-61
2022/08/29 05:11:48;;;;;;;;;;;;;;;26.30;40.89;99471.38;2062723;28;19925;-61
2022/08/29 05:12:48;;;;;;;;;;;;;;;26.30;40.84;99468.59;2066021;28;19914;-61
2022/08/29 05:13:50;;;;;;;;;;;;;;;26.30;40.58;99465.84;2063247;28;19925;-61
2022/08/29 05:14:52;;;;;;;;;;;;;;;26.29;40.89;99461.41;2065444;28;19918;-61
2022/08/29 05:15:52;;;;;;;;;;;;;;;26.31;40.85;99467.53;2065864;28;19920;-61
2022/08/29 05:16:52;;;;;;;;;;;;;;;26.30;40.78;99465.84;2066163;28;19917;-60
2022/08/29 05:17:53;;;;;;;;;;;;;;;26.31;40.61;99470.28;2065679;28;20534;-61
2022/08/29 05:18:54;;;;;;;;;;;;;;;26.30;40.71;99471.38;2066693;28;20575;-62
2022/08/29 05:19:54;;;;;;;;;;;;;;;26.30;40.63;99472.22;2066252;28;19921;-61
2022/08/29 05:20:55;;;;;;;;;;;;;;;26.31;40.70;99473.06;2066414;28;19960;-59
2022/08/29 05:21:56;;;;;;;;;;;;;;;26.30;40.80;99465.84;2067142;28;20442;-60
2022/08/29 05:22:57;;;;;;;;;;;;;;;26.30;40.75;99471.38;2064712;28;19910;-60